sensor_id;sensor_type;location;lat;lon;timestamp;pressure;altitude;pressure_sealevel;temperature;humidity
15050;BME280;7622;42.724;23.250;2022-12-07T00:00:34;94647.31;;;6.18;100.00
15050;BME280;7622;42.724;23.250;2022-12-07T00:03:01;94638.19;;;6.25;100.00
15050;BME280;7622;42.724;23.250;2022-12-07T00:05:29;94644.16;;;6.37;100.00
15050;BME280;7622;42.724;23.250;2022-12-07T00:07:57;94633.38;;;6.20;100.00
15050;BME280;7622;42.724;23.250;2022-12-07T00:10:24;94636.91;;;6.19;100.00
15050;BME280;7622;42.724;23.250;2022-12-07T00:12:51;94645.22;;;6.12;100.00
15050;BME280;7622;42.724;23.250;2022-12-07T00:15:18;94637.47;;;6.23;100.00
15050;BME280;7622;42.724;23.250;2022-12-07T00:17:44;94644.53;;;6.21;100.00
15050;BME280;7622;42.724;23.250;2022-12-07T00:20:11;94641.34;;;6.17;100.00
15050;BME280;7622;42.724;23.250;2022-12-07T00:22:38;94645.91;;;6.25;100.00
15050;BME280;7622;42.724;23.250;2022-12-07T00:25:07;94639.47;;;6.30;100.00
15050;BME280;7622;42.724;23.250;2022-12-07T00:27:34;94641.94;;;6.32;100.00
15050;BME280;7622;42.724;23.250;2022-12-07T00:30:00;94643.34;;;6.36;100.00
15050;BME280;7622;42.724;23.250;2022-12-07T00:32:27;94658.56;;;6.39;100.00
15050;BME280;7622;42.724;23.250;2022-12-07T00:34:54;94654.94;;;6.19;100.00
15050;BME280;7622;42.724;23.250;2022-12-07T00:37:21;94655.19;;;6.27;100.00
15050;BME280;7622;42.724;23.250;2022-12-07T00:39:47;94653.19;;;6.20;100.00
15050;BME280;7622;42.724;23.250;2022-12-07T00:42:15;94647.09;;;6.32;100.00
15050;BME280;7622;42.724;23.250;2022-12-07T00:44:42;94645.34;;;6.32;100.00
15050;BME280;7622;42.724;23.250;2022-12-07T00:47:09;94646.38;;;6.41;100.00
15050;BME280;7622;42.724;23.250;2022-12-07T00:49:36;94641.44;;;6.38;100.00
15050;BME280;7622;42.724;23.250;2022-12-07T00:52:03;94582.75;;;5.97;100.00
15050;BME280;7622;42.724;23.250;2022-12-07T00:54:30;94636.19;;;6.40;100.00
15050;BME280;7622;42.724;23.250;2022-12-07T00:56:56;94639.34;;;6.32;100.00
15050;BME280;7622;42.724;23.250;2022-12-07T00:59:25;94636.91;;;6.19;100.00
15050;BME280;7622;42.724;23.250;2022-12-07T01:01:53;94636.63;;;6.45;100.00
15050;BME280;7622;42.724;23.250;2022-12-07T01:04:20;94638.19;;;6.14;100.00
15050;BME280;7622;42.724;23.250;2022-12-07T01:06:47;94641.22;;;6.19;100.00
15050;BME280;7622;42.724;23.250;2022-12-07T01:09:14;94628.91;;;6.33;100.00
15050;BME280;7622;42.724;23.250;2022-12-07T01:11:41;94628.66;;;6.37;100.00
15050;BME280;7622;42.724;23.250;2022-12-07T01:14:08;94628.91;;;6.33;100.00
15050;BME280;7622;42.724;23.250;2022-12-07T01:16:38;94608.28;;;6.33;100.00
15050;BME280;7622;42.724;23.250;2022-12-07T01:19:05;94628.75;;;6.57;100.00
15050;BME280;7622;42.724;23.250;2022-12-07T01:21:33;94628.78;;;6.46;100.00
15050;BME280;7622;42.724;23.250;2022-12-07T01:24:03;94626.44;;;6.54;100.00
15050;BME280;7622;42.724;23.250;2022-12-07T01:26:30;94620.34;;;6.55;100.00
15050;BME280;7622;42.724;23.250;2022-12-07T01:28:57;94612.75;;;6.43;100.00
15050;BME280;7622;42.724;23.250;2022-12-07T01:31:26;94615.88;;;6.46;100.00
15050;BME280;7622;42.724;23.250;2022-12-07T01:33:56;94615.50;;;6.51;100.00
15050;BME280;7622;42.724;23.250;2022-12-07T01:36:24;94616.63;;;6.26;100.00
15050;BME280;7622;42.724;23.250;2022-12-07T01:38:54;94617.78;;;6.33;100.00
15050;BME280;7622;42.724;23.250;2022-12-07T01:41:23;94624.31;;;6.37;100.00
15050;BME280;7622;42.724;23.250;2022-12-07T01:44:14;94613.56;;;6.32;100.00
15050;BME280;7622;42.724;23.250;2022-12-07T01:46:43;94616.28;;;6.19;100.00
15050;BME280;7622;42.724;23.250;2022-12-07T01:49:16;94600.69;;;6.10;100.00
15050;BME280;7622;42.724;23.250;2022-12-07T01:51:45;94600.44;;;6.35;100.00
15050;BME280;7622;42.724;23.250;2022-12-07T01:54:14;94619.66;;;6.31;100.00
15050;BME280;7622;42.724;23.250;2022-12-07T01:56:46;94591.31;;;6.20;100.00
15050;BME280;7622;42.724;23.250;2022-12-07T01:59:16;94602.44;;;6.20;100.00
15050;BME280;7622;42.724;23.250;2022-12-07T02:01:44;94604.56;;;6.15;100.00
15050;BME280;7622;42.724;23.250;2022-12-07T02:04:12;94600.69;;;6.10;100.00
15050;BME280;7622;42.724;23.250;2022-12-07T02:06:40;94602.69;;;6.06;100.00
15050;BME280;7622;42.724;23.250;2022-12-07T02:09:08;94599.75;;;6.22;100.00
15050;BME280;7622;42.724;23.250;2022-12-07T02:11:35;94589.88;;;6.16;100.00
15050;BME280;7622;42.724;23.250;2022-12-07T02:14:02;94600.91;;;6.29;100.00
15050;BME280;7622;42.724;23.250;2022-12-07T02:16:33;94597.16;;;6.33;100.00
15050;BME280;7622;42.724;23.250;2022-12-07T02:19:29;94588.47;;;6.34;100.00
15050;BME280;7622;42.724;23.250;2022-12-07T02:22:02;94591.06;;;6.34;100.00
15050;BME280;7622;42.724;23.250;2022-12-07T02:24:48;94588.56;;;6.44;100.00
15050;BME280;7622;42.724;23.250;2022-12-07T02:27:38;94589.66;;;6.19;100.00
15050;BME280;7622;42.724;23.250;2022-12-07T02:30:09;94584.38;;;6.09;100.00
15050;BME280;7622;42.724;23.250;2022-12-07T02:32:43;94574.91;;;6.21;100.00
15050;BME280;7622;42.724;23.250;2022-12-07T02:35:15;94574.66;;;6.35;100.00
15050;BME280;7622;42.724;23.250;2022-12-07T02:37:53;94582.28;;;6.25;100.00
15050;BME280;7622;42.724;23.250;2022-12-07T02:40:28;94575.34;;;6.26;100.00
15050;BME280;7622;42.724;23.250;2022-12-07T02:43:00;94598.94;;;6.21;100.00
15050;BME280;7622;42.724;23.250;2022-12-07T02:45:31;94586.38;;;6.06;100.00
15050;BME280;7622;42.724;23.250;2022-12-07T02:48:00;94583.22;;;6.02;100.00
15050;BME280;7622;42.724;23.250;2022-12-07T02:50:27;94589.19;;;6.03;100.00
15050;BME280;7622;42.724;23.250;2022-12-07T02:52:55;94578.41;;;5.86;100.00
15050;BME280;7622;42.724;23.250;2022-12-07T02:55:26;94566.00;;;5.91;100.00
15050;BME280;7622;42.724;23.250;2022-12-07T02:58:06;94573.03;;;6.01;100.00
15050;BME280;7622;42.724;23.250;2022-12-07T03:00:44;94575.16;;;6.07;100.00
15050;BME280;7622;42.724;23.250;2022-12-07T03:03:14;94570.22;;;5.92;100.00
15050;BME280;7622;42.724;23.250;2022-12-07T03:06:07;94559.41;;;6.10;100.00
15050;BME280;7622;42.724;23.250;2022-12-07T03:08:42;94569.78;;;5.87;100.00
15050;BME280;7622;42.724;23.250;2022-12-07T03:11:13;94562.34;;;5.83;100.00
15050;BME280;7622;42.724;23.250;2022-12-07T03:13:46;94545.81;;;5.74;100.00
15050;BME280;7622;42.724;23.250;2022-12-07T03:16:18;94562.69;;;5.78;100.00
15050;BME280;7622;42.724;23.250;2022-12-07T03:18:49;94570.19;;;5.81;100.00
15050;BME280;7622;42.724;23.250;2022-12-07T03:21:21;94567.75;;;5.80;100.00
15050;BME280;7622;42.724;23.250;2022-12-07T03:23:53;94561.78;;;5.79;100.00
15050;BME280;7622;42.724;23.250;2022-12-07T03:26:24;94566.66;;;5.82;100.00
15050;BME280;7622;42.724;23.250;2022-12-07T03:28:58;94559.53;;;5.75;100.00
15050;BME280;7622;42.724;23.250;2022-12-07T03:31:31;94565.03;;;5.59;100.00
15050;BME280;7622;42.724;23.250;2022-12-07T03:34:04;94566.69;;;5.71;100.00
15050;BME280;7622;42.724;23.250;2022-12-07T03:36:39;94560.34;;;5.75;100.00
15050;BME280;7622;42.724;23.250;2022-12-07T03:39:13;94538.69;;;5.55;100.00
15050;BME280;7622;42.724;23.250;2022-12-07T03:41:44;94553.91;;;5.70;100.00
15050;BME280;7622;42.724;23.250;2022-12-07T03:44:12;94569.97;;;5.84;100.00
15050;BME280;7622;42.724;23.250;2022-12-07T03:46:44;94569.25;;;5.71;100.00
15050;BME280;7622;42.724;23.250;2022-12-07T03:49:16;94571.94;;;5.70;100.00
15050;BME280;7622;42.724;23.250;2022-12-07T03:51:50;94560.84;;;5.80;100.00
15050;BME280;7622;42.724;23.250;2022-12-07T03:54:21;94537.63;;;5.58;100.00
15050;BME280;7622;42.724;23.250;2022-12-07T03:56:50;94555.44;;;5.72;100.00
15050;BME280;7622;42.724;23.250;2022-12-07T03:59:19;94559.53;;;5.75;100.00
15050;BME280;7622;42.724;23.250;2022-12-07T04:01:53;94553.91;;;5.70;100.00
15050;BME280;7622;42.724;23.250;2022-12-07T04:04:21;94549.81;;;5.78;100.00
15050;BME280;7622;42.724;23.250;2022-12-07T04:06:48;94557.78;;;5.64;100.00
15050;BME280;7622;42.724;23.250;2022-12-07T04:09:15;94534.69;;;5.63;100.00
15050;BME280;7622;42.724;23.250;2022-12-07T04:11:42;94549.94;;;5.66;100.00
15050;BME280;7622;42.724;23.250;2022-12-07T04:14:08;94550.75;;;5.66;100.00
15050;BME280;7622;42.724;23.250;2022-12-07T04:16:48;94552.16;;;5.70;100.00
15050;BME280;7622;42.724;23.250;2022-12-07T04:19:18;94556.03;;;5.87;100.00
15050;BME280;7622;42.724;23.250;2022-12-07T04:21:46;94556.88;;;5.87;100.00
15050;BME280;7622;42.724;23.250;2022-12-07T04:24:14;94570.91;;;5.72;100.00
15050;BME280;7622;42.724;23.250;2022-12-07T04:26:41;94529.19;;;5.56;100.00
15050;BME280;7622;42.724;23.250;2022-12-07T04:29:09;94564.31;;;5.68;100.00
15050;BME280;7622;42.724;23.250;2022-12-07T04:31:36;94559.16;;;5.68;100.00
15050;BME280;7622;42.724;23.250;2022-12-07T04:34:04;94559.06;;;5.70;100.00
15050;BME280;7622;42.724;23.250;2022-12-07T04:36:32;94553.19;;;5.68;100.00
15050;BME280;7622;42.724;23.250;2022-12-07T04:38:59;94552.97;;;5.48;100.00
15050;BME280;7622;42.724;23.250;2022-12-07T04:41:27;94527.66;;;5.42;100.00
15050;BME280;7622;42.724;23.250;2022-12-07T04:43:54;94555.28;;;5.40;100.00
15050;BME280;7622;42.724;23.250;2022-12-07T04:46:22;94561.28;;;5.52;100.00
15050;BME280;7622;42.724;23.250;2022-12-07T04:48:50;94571.44;;;5.42;100.00
15050;BME280;7622;42.724;23.250;2022-12-07T04:51:21;94537.56;;;5.13;100.00
15050;BME280;7622;42.724;23.250;2022-12-07T04:53:49;94558.16;;;5.13;100.00
15050;BME280;7622;42.724;23.250;2022-12-07T04:56:17;94569.78;;;5.30;100.00
15050;BME280;7622;42.724;23.250;2022-12-07T04:58:45;94566.41;;;5.41;100.00
15050;BME280;7622;42.724;23.250;2022-12-07T05:01:13;94563.38;;;5.36;100.00
15050;BME280;7622;42.724;23.250;2022-12-07T05:03:40;94559.72;;;5.27;100.00
15050;BME280;7622;42.724;23.250;2022-12-07T05:06:08;94565.94;;;5.25;100.00
15050;BME280;7622;42.724;23.250;2022-12-07T05:08:35;94558.31;;;5.23;100.00
15050;BME280;7622;42.724;23.250;2022-12-07T05:11:05;94560.25;;;5.08;100.00
15050;BME280;7622;42.724;23.250;2022-12-07T05:13:32;94556.22;;;5.28;100.00
15050;BME280;7622;42.724;23.250;2022-12-07T05:15:59;94552.56;;;5.20;100.00
15050;BME280;7622;42.724;23.250;2022-12-07T05:18:26;94568.00;;;5.20;100.00
15050;BME280;7622;42.724;23.250;2022-12-07T05:20:53;94567.41;;;5.16;100.00
15050;BME280;7622;42.724;23.250;2022-12-07T05:23:20;94566.22;;;5.09;100.00
15050;BME280;7622;42.724;23.250;2022-12-07T05:25:46;94555.41;;;4.93;100.00
15050;BME280;7622;42.724;23.250;2022-12-07T05:28:15;94558.88;;;5.15;100.00
15050;BME280;7622;42.724;23.250;2022-12-07T05:30:41;94558.19;;;5.25;100.00
15050;BME280;7622;42.724;23.250;2022-12-07T05:33:08;94561.00;;;5.22;100.00
15050;BME280;7622;42.724;23.250;2022-12-07T05:35:35;94558.47;;;5.77;100.00
15050;BME280;7622;42.724;23.250;2022-12-07T05:38:03;94555.22;;;5.98;100.00
15050;BME280;7622;42.724;23.250;2022-12-07T05:40:29;94561.31;;;5.85;100.00
15050;BME280;7622;42.724;23.250;2022-12-07T05:42:56;94559.91;;;5.92;100.00
15050;BME280;7622;42.724;23.250;2022-12-07T05:45:24;94557.66;;;5.66;100.00
15050;BME280;7622;42.724;23.250;2022-12-07T05:47:51;94548.63;;;5.82;100.00
15050;BME280;7622;42.724;23.250;2022-12-07T05:50:18;94555.69;;;5.80;100.00
15050;BME280;7622;42.724;23.250;2022-12-07T05:52:45;94549.81;;;5.78;100.00
15050;BME280;7622;42.724;23.250;2022-12-07T05:55:11;94555.69;;;5.80;100.00
15050;BME280;7622;42.724;23.250;2022-12-07T05:57:38;94554.38;;;5.86;100.00
15050;BME280;7622;42.724;23.250;2022-12-07T06:00:06;94553.09;;;5.69;100.00
15050;BME280;7622;42.724;23.250;2022-12-07T06:02:33;94540.22;;;5.80;100.00
15050;BME280;7622;42.724;23.250;2022-12-07T06:05:00;94547.59;;;5.85;100.00
15050;BME280;7622;42.724;23.250;2022-12-07T06:07:27;94560.03;;;5.91;100.00
15050;BME280;7622;42.724;23.250;2022-12-07T06:09:53;94550.97;;;5.74;100.00
15050;BME280;7622;42.724;23.250;2022-12-07T06:12:20;94553.91;;;5.70;100.00
15050;BME280;7622;42.724;23.250;2022-12-07T06:15:04;94556.00;;;5.76;100.00
15050;BME280;7622;42.724;23.250;2022-12-07T06:17:33;94563.41;;;5.80;100.00
15050;BME280;7622;42.724;23.250;2022-12-07T06:20:00;94556.84;;;5.76;100.00
15050;BME280;7622;42.724;23.250;2022-12-07T06:22:26;94561.31;;;5.85;100.00
15050;BME280;7622;42.724;23.250;2022-12-07T06:24:53;94558.50;;;5.88;100.00
15050;BME280;7622;42.724;23.250;2022-12-07T06:27:20;94562.13;;;5.97;100.00
15050;BME280;7622;42.724;23.250;2022-12-07T06:29:47;94563.22;;;5.95;100.00
15050;BME280;7622;42.724;23.250;2022-12-07T06:32:13;94573.03;;;6.01;100.00
15050;BME280;7622;42.724;23.250;2022-12-07T06:34:42;94575.38;;;5.92;100.00
15050;BME280;7622;42.724;23.250;2022-12-07T06:37:08;94572.69;;;5.94;100.00
15050;BME280;7622;42.724;23.250;2022-12-07T06:39:35;94568.44;;;5.82;100.00
15050;BME280;7622;42.724;23.250;2022-12-07T06:42:02;94568.78;;;5.77;100.00
15050;BME280;7622;42.724;23.250;2022-12-07T06:44:29;94576.31;;;5.80;100.00
15050;BME280;7622;42.724;23.250;2022-12-07T06:46:55;94578.88;;;5.80;100.00
15050;BME280;7622;42.724;23.250;2022-12-07T06:49:22;94588.47;;;5.78;100.00
15050;BME280;7622;42.724;23.250;2022-12-07T06:51:50;94585.53;;;5.72;100.00
15050;BME280;7622;42.724;23.250;2022-12-07T06:54:17;94592.69;;;5.79;100.00
15050;BME280;7622;42.724;23.250;2022-12-07T06:56:44;94589.03;;;5.82;100.00
15050;BME280;7622;42.724;23.250;2022-12-07T06:59:11;94586.41;;;5.95;100.00
15050;BME280;7622;42.724;23.250;2022-12-07T07:01:37;94586.84;;;6.11;100.00
15050;BME280;7622;42.724;23.250;2022-12-07T07:04:05;94584.50;;;6.19;100.00
15050;BME280;7622;42.724;23.250;2022-12-07T07:06:31;94584.88;;;6.14;100.00
15050;BME280;7622;42.724;23.250;2022-12-07T07:09:00;94587.09;;;6.19;100.00
15050;BME280;7622;42.724;23.250;2022-12-07T07:11:26;94587.09;;;6.19;100.00
15050;BME280;7622;42.724;23.250;2022-12-07T07:13:53;94593.44;;;6.15;100.00
15050;BME280;7622;42.724;23.250;2022-12-07T07:16:22;94587.78;;;6.21;100.00
15050;BME280;7622;42.724;23.250;2022-12-07T07:18:49;94580.72;;;6.23;100.00
15050;BME280;7622;42.724;23.250;2022-12-07T07:21:16;94585.88;;;6.23;100.00
15050;BME280;7622;42.724;23.250;2022-12-07T07:23:43;94573.00;;;6.23;100.00
15050;BME280;7622;42.724;23.250;2022-12-07T07:26:11;94577.72;;;6.29;100.00
15050;BME280;7622;42.724;23.250;2022-12-07T07:28:38;94574.50;;;6.48;100.00
15050;BME280;7622;42.724;23.250;2022-12-07T07:31:05;94584.47;;;6.41;100.00
15050;BME280;7622;42.724;23.250;2022-12-07T07:33:31;94582.53;;;6.65;100.00
15050;BME280;7622;42.724;23.250;2022-12-07T07:35:58;94584.84;;;6.80;100.00
15050;BME280;7622;42.724;23.250;2022-12-07T07:38:25;94582.59;;;7.07;100.00
15050;BME280;7622;42.724;23.250;2022-12-07T07:40:52;94586.03;;;7.28;100.00
15050;BME280;7622;42.724;23.250;2022-12-07T07:43:20;94584.38;;;7.69;100.00
15050;BME280;7622;42.724;23.250;2022-12-07T07:45:47;94584.56;;;8.07;100.00
15050;BME280;7622;42.724;23.250;2022-12-07T07:48:13;94580.59;;;8.34;100.00
15050;BME280;7622;42.724;23.250;2022-12-07T07:50:40;94579.66;;;8.44;100.00
15050;BME280;7622;42.724;23.250;2022-12-07T07:53:07;94578.34;;;8.50;100.00
15050;BME280;7622;42.724;23.250;2022-12-07T07:55:34;94582.25;;;8.44;100.00
15050;BME280;7622;42.724;23.250;2022-12-07T07:58:00;94577.69;;;8.67;100.00
15050;BME280;7622;42.724;23.250;2022-12-07T08:00:28;94579.53;;;8.46;100.00
15050;BME280;7622;42.724;23.250;2022-12-07T08:02:55;94560.41;;;8.27;100.00
15050;BME280;7622;42.724;23.250;2022-12-07T08:05:22;94592.22;;;8.18;100.00
15050;BME280;7622;42.724;23.250;2022-12-07T08:07:49;94587.75;;;8.20;100.00
15050;BME280;7622;42.724;23.250;2022-12-07T08:10:16;94590.16;;;7.82;100.00
15050;BME280;7622;42.724;23.250;2022-12-07T08:12:43;94589.75;;;8.07;100.00
15050;BME280;7622;42.724;23.250;2022-12-07T08:15:30;94584.56;;;8.07;100.00
15050;BME280;7622;42.724;23.250;2022-12-07T08:17:57;94586.63;;;8.13;100.00
15050;BME280;7622;42.724;23.250;2022-12-07T08:20:24;94583.44;;;8.30;100.00
15050;BME280;7622;42.724;23.250;2022-12-07T08:22:51;94584.75;;;8.65;100.00
15050;BME280;7622;42.724;23.250;2022-12-07T08:25:18;94581.38;;;9.22;100.00
15050;BME280;7622;42.724;23.250;2022-12-07T08:27:45;94583.25;;;10.15;100.00
15050;BME280;7622;42.724;23.250;2022-12-07T08:30:12;94587.94;;;10.66;100.00
15050;BME280;7622;42.724;23.250;2022-12-07T08:32:40;94574.31;;;11.17;100.00
15050;BME280;7622;42.724;23.250;2022-12-07T08:35:08;94582.84;;;11.27;100.00
15050;BME280;7622;42.724;23.250;2022-12-07T08:37:35;94589.19;;;11.25;100.00
15050;BME280;7622;42.724;23.250;2022-12-07T08:40:02;94577.03;;;10.35;100.00
15050;BME280;7622;42.724;23.250;2022-12-07T08:42:29;94565.28;;;10.58;100.00
15050;BME280;7622;42.724;23.250;2022-12-07T08:45:04;94573.66;;;10.52;100.00
15050;BME280;7622;42.724;23.250;2022-12-07T08:47:31;94574.91;;;10.48;100.00
15050;BME280;7622;42.724;23.250;2022-12-07T08:50:01;94568.97;;;11.01;100.00
15050;BME280;7622;42.724;23.250;2022-12-07T08:52:29;94571.38;;;10.49;100.00
15050;BME280;7622;42.724;23.250;2022-12-07T08:54:56;94540.22;;;10.22;100.00
15050;BME280;7622;42.724;23.250;2022-12-07T08:57:24;94556.75;;;10.21;100.00
15050;BME280;7622;42.724;23.250;2022-12-07T08:59:51;94567.69;;;10.05;100.00
15050;BME280;7622;42.724;23.250;2022-12-07T09:02:18;94562.34;;;9.79;100.00
15050;BME280;7622;42.724;23.250;2022-12-07T09:04:44;94548.81;;;9.76;100.00
15050;BME280;7622;42.724;23.250;2022-12-07T09:07:13;94552.66;;;9.81;100.00
15050;BME280;7622;42.724;23.250;2022-12-07T09:09:39;94549.19;;;9.91;100.00
15050;BME280;7622;42.724;23.250;2022-12-07T09:12:07;94549.66;;;10.04;100.00
15050;BME280;7622;42.724;23.250;2022-12-07T09:14:34;94544.00;;;10.27;100.00
15050;BME280;7622;42.724;23.250;2022-12-07T09:17:06;94535.63;;;10.34;100.00
15050;BME280;7622;42.724;23.250;2022-12-07T09:19:33;94544.38;;;10.33;100.00
15050;BME280;7622;42.724;23.250;2022-12-07T09:22:00;94531.03;;;10.27;100.00
15050;BME280;7622;42.724;23.250;2022-12-07T09:24:28;94534.53;;;10.36;100.00
15050;BME280;7622;42.724;23.250;2022-12-07T09:26:55;94532.28;;;10.86;100.00
15050;BME280;7622;42.724;23.250;2022-12-07T09:29:22;94530.13;;;11.17;100.00
15050;BME280;7622;42.724;23.250;2022-12-07T09:31:48;94534.72;;;10.88;100.00
15050;BME280;7622;42.724;23.250;2022-12-07T09:34:15;94522.56;;;10.71;100.00
15050;BME280;7622;42.724;23.250;2022-12-07T09:36:42;94519.28;;;10.69;100.00
15050;BME280;7622;42.724;23.250;2022-12-07T09:39:09;94520.25;;;10.50;100.00
15050;BME280;7622;42.724;23.250;2022-12-07T09:41:39;94525.28;;;10.24;100.00
15050;BME280;7622;42.724;23.250;2022-12-07T09:44:10;94520.28;;;10.13;100.00
15050;BME280;7622;42.724;23.250;2022-12-07T09:46:40;94520.53;;;10.10;100.00
15050;BME280;7622;42.724;23.250;2022-12-07T09:49:11;94513.31;;;10.23;100.00
15050;BME280;7622;42.724;23.250;2022-12-07T09:51:38;94508.22;;;10.49;100.00
15050;BME280;7622;42.724;23.250;2022-12-07T09:54:05;94506.75;;;10.19;100.00
15050;BME280;7622;42.724;23.250;2022-12-07T09:56:32;94505.66;;;10.12;100.00
15050;BME280;7622;42.724;23.250;2022-12-07T09:59:01;94503.84;;;10.49;100.00
15050;BME280;7622;42.724;23.250;2022-12-07T10:01:30;94504.22;;;10.90;100.00
15050;BME280;7622;42.724;23.250;2022-12-07T10:04:02;94493.31;;;11.30;100.00
15050;BME280;7622;42.724;23.250;2022-12-07T10:06:33;94506.53;;;11.62;100.00
15050;BME280;7622;42.724;23.250;2022-12-07T10:08:59;94495.59;;;11.51;100.00
15050;BME280;7622;42.724;23.250;2022-12-07T10:11:26;94486.19;;;11.83;100.00
15050;BME280;7622;42.724;23.250;2022-12-07T10:13:53;94483.41;;;12.19;100.00
15050;BME280;7622;42.724;23.250;2022-12-07T10:16:34;94482.28;;;12.13;100.00
15050;BME280;7622;42.724;23.250;2022-12-07T10:19:18;94452.53;;;11.82;100.00
15050;BME280;7622;42.724;23.250;2022-12-07T10:22:03;94459.22;;;11.84;100.00
15050;BME280;7622;42.724;23.250;2022-12-07T10:24:30;94459.13;;;12.02;100.00
15050;BME280;7622;42.724;23.250;2022-12-07T10:26:57;94459.38;;;11.57;100.00
15050;BME280;7622;42.724;23.250;2022-12-07T10:29:29;94454.06;;;11.15;100.00
15050;BME280;7622;42.724;23.250;2022-12-07T10:32:00;94454.19;;;11.31;100.00
15050;BME280;7622;42.724;23.250;2022-12-07T10:34:29;94453.03;;;11.08;100.00
15050;BME280;7622;42.724;23.250;2022-12-07T10:37:16;94454.72;;;11.17;100.00
15050;BME280;7622;42.724;23.250;2022-12-07T10:39:45;94462.66;;;11.33;100.00
15050;BME280;7622;42.724;23.250;2022-12-07T10:42:20;94449.50;;;10.91;100.00
15050;BME280;7622;42.724;23.250;2022-12-07T10:44:48;94455.88;;;10.97;100.00
15050;BME280;7622;42.724;23.250;2022-12-07T10:47:25;94444.69;;;11.22;100.00
15050;BME280;7622;42.724;23.250;2022-12-07T10:53:06;94436.22;;;11.46;100.00
15050;BME280;7622;42.724;23.250;2022-12-07T10:55:45;94444.47;;;11.41;100.00
15050;BME280;7622;42.724;23.250;2022-12-07T10:58:35;94436.91;;;11.74;100.00
15050;BME280;7622;42.724;23.250;2022-12-07T11:01:13;94432.25;;;12.60;100.00
15050;BME280;7622;42.724;23.250;2022-12-07T11:03:53;94427.03;;;13.00;100.00
15050;BME280;7622;42.724;23.250;2022-12-07T11:06:27;94422.78;;;13.48;100.00
15050;BME280;7622;42.724;23.250;2022-12-07T11:09:34;94422.31;;;13.04;100.00
15050;BME280;7622;42.724;23.250;2022-12-07T11:12:09;94418.91;;;12.71;100.00
15050;BME280;7622;42.724;23.250;2022-12-07T11:14:45;94413.84;;;12.70;100.00
15050;BME280;7622;42.724;23.250;2022-12-07T11:17:19;94403.56;;;12.52;100.00
15050;BME280;7622;42.724;23.250;2022-12-07T11:20:01;94392.50;;;12.74;100.00
15050;BME280;7622;42.724;23.250;2022-12-07T11:22:36;94404.72;;;13.06;100.00
15050;BME280;7622;42.724;23.250;2022-12-07T11:25:18;94364.09;;;13.28;100.00
15050;BME280;7622;42.724;23.250;2022-12-07T11:28:07;94384.50;;;13.79;100.00
15050;BME280;7622;42.724;23.250;2022-12-07T11:30:46;94383.50;;;13.89;100.00
15050;BME280;7622;42.724;23.250;2022-12-07T11:33:19;94388.09;;;13.78;100.00
15050;BME280;7622;42.724;23.250;2022-12-07T11:35:57;94387.59;;;14.14;100.00
15050;BME280;7622;42.724;23.250;2022-12-07T11:38:35;94388.72;;;14.50;100.00
15050;BME280;7622;42.724;23.250;2022-12-07T11:41:05;94394.41;;;14.23;100.00
15050;BME280;7622;42.724;23.250;2022-12-07T11:43:54;94373.03;;;13.89;100.00
15050;BME280;7622;42.724;23.250;2022-12-07T11:46:25;94375.75;;;13.64;100.00
15050;BME280;7622;42.724;23.250;2022-12-07T11:48:57;94364.22;;;13.90;100.00
15050;BME280;7622;42.724;23.250;2022-12-07T11:51:28;94369.19;;;14.38;100.00
15050;BME280;7622;42.724;23.250;2022-12-07T11:53:59;94366.50;;;14.46;98.82
15050;BME280;7622;42.724;23.250;2022-12-07T11:56:29;94366.69;;;14.14;99.34
15050;BME280;7622;42.724;23.250;2022-12-07T11:59:00;94362.19;;;14.00;100.00
15050;BME280;7622;42.724;23.250;2022-12-07T12:01:37;94358.34;;;13.49;100.00
15050;BME280;7622;42.724;23.250;2022-12-07T12:04:16;94350.97;;;13.60;100.00
15050;BME280;7622;42.724;23.250;2022-12-07T12:06:46;94348.78;;;13.41;100.00
15050;BME280;7622;42.724;23.250;2022-12-07T12:09:15;94344.09;;;13.67;100.00
15050;BME280;7622;42.724;23.250;2022-12-07T12:12:01;94353.22;;;13.63;100.00
15050;BME280;7622;42.724;23.250;2022-12-07T12:14:42;94344.81;;;13.84;100.00
15050;BME280;7622;42.724;23.250;2022-12-07T12:20:27;94324.16;;;13.74;100.00
15050;BME280;7622;42.724;23.250;2022-12-07T12:23:00;94327.13;;;13.63;100.00
15050;BME280;7622;42.724;23.250;2022-12-07T12:25:30;94338.97;;;13.35;100.00
15050;BME280;7622;42.724;23.250;2022-12-07T12:27:59;94329.22;;;13.29;100.00
15050;BME280;7622;42.724;23.250;2022-12-07T12:30:35;94322.88;;;13.07;100.00
15050;BME280;7622;42.724;23.250;2022-12-07T12:33:05;94328.50;;;12.63;100.00
15050;BME280;7622;42.724;23.250;2022-12-07T12:35:38;94317.13;;;12.56;100.00
15050;BME280;7622;42.724;23.250;2022-12-07T12:38:33;94305.53;;;12.59;100.00
15050;BME280;7622;42.724;23.250;2022-12-07T12:41:00;94306.38;;;12.43;100.00
15050;BME280;7622;42.724;23.250;2022-12-07T12:43:48;94311.72;;;12.66;100.00
15050;BME280;7622;42.724;23.250;2022-12-07T12:46:48;94314.47;;;12.81;100.00
15050;BME280;7622;42.724;23.250;2022-12-07T12:49:35;94304.19;;;12.79;100.00
15050;BME280;7622;42.724;23.250;2022-12-07T12:55:58;94308.47;;;12.48;100.00
15050;BME280;7622;42.724;23.250;2022-12-07T12:58:32;94307.16;;;12.52;100.00
15050;BME280;7622;42.724;23.250;2022-12-07T13:07:56;94316.28;;;12.32;100.00
15050;BME280;7622;42.724;23.250;2022-12-07T13:10:42;94318.88;;;12.07;100.00
15050;BME280;7622;42.724;23.250;2022-12-07T13:13:41;94297.09;;;12.08;100.00
15050;BME280;7622;42.724;23.250;2022-12-07T13:16:39;94313.19;;;11.96;100.00
15050;BME280;7622;42.724;23.250;2022-12-07T13:22:50;94310.06;;;11.84;100.00
15050;BME280;7622;42.724;23.250;2022-12-07T13:25:22;94304.19;;;11.74;100.00
15050;BME280;7622;42.724;23.250;2022-12-07T13:27:57;94305.50;;;11.78;100.00
15050;BME280;7622;42.724;23.250;2022-12-07T13:30:26;94304.38;;;11.97;100.00
15050;BME280;7622;42.724;23.250;2022-12-07T13:32:56;94291.22;;;11.82;100.00
15050;BME280;7622;42.724;23.250;2022-12-07T13:35:32;94296.66;;;11.71;100.00